sensor_id;sensor_type;location;lat;lon;timestamp;pressure;altitude;pressure_sealevel;temperature;humidity
47524;BME280;33253;42.144;25.884;2024-03-07T00:00:35;100633.03;;;6.92;100.00
47524;BME280;33253;42.144;25.884;2024-03-07T00:03:01;100631.47;;;6.94;100.00
47524;BME280;33253;42.144;25.884;2024-03-07T00:05:26;100629.69;;;6.93;100.00
47524;BME280;33253;42.144;25.884;2024-03-07T00:07:52;100636.47;;;6.76;100.00
47524;BME280;33253;42.144;25.884;2024-03-07T00:10:17;100634.13;;;6.64;100.00
47524;BME280;33253;42.144;25.884;2024-03-07T00:12:43;100634.28;;;6.68;100.00
47524;BME280;33253;42.144;25.884;2024-03-07T00:15:09;100637.88;;;6.71;100.00
47524;BME280;33253;42.144;25.884;2024-03-07T00:17:35;100635.88;;;6.66;100.00
47524;BME280;33253;42.144;25.884;2024-03-07T00:20:01;100645.00;;;6.45;100.00
47524;BME280;33253;42.144;25.884;2024-03-07T00:22:28;100649.91;;;6.26;100.00
47524;BME280;33253;42.144;25.884;2024-03-07T00:24:55;100646.56;;;6.27;100.00
47524;BME280;33253;42.144;25.884;2024-03-07T00:27:21;100642.66;;;6.34;100.00
47524;BME280;33253;42.144;25.884;2024-03-07T00:29:49;100639.72;;;6.42;100.00
47524;BME280;33253;42.144;25.884;2024-03-07T00:32:22;100641.66;;;6.46;100.00
47524;BME280;33253;42.144;25.884;2024-03-07T00:34:47;100636.44;;;6.45;100.00
47524;BME280;33253;42.144;25.884;2024-03-07T00:37:13;100630.06;;;6.53;100.00
47524;BME280;33253;42.144;25.884;2024-03-07T00:39:39;100635.53;;;6.59;100.00
47524;BME280;33253;42.144;25.884;2024-03-07T00:42:04;100630.56;;;6.62;100.00
47524;BME280;33253;42.144;25.884;2024-03-07T00:44:30;100624.50;;;6.60;100.00
47524;BME280;33253;42.144;25.884;2024-03-07T00:46:55;100630.56;;;6.62;100.00
47524;BME280;33253;42.144;25.884;2024-03-07T00:49:22;100629.63;;;6.60;100.00
47524;BME280;33253;42.144;25.884;2024-03-07T00:51:47;100629.13;;;6.68;100.00
47524;BME280;33253;42.144;25.884;2024-03-07T00:54:12;100618.34;;;6.73;100.00
47524;BME280;33253;42.144;25.884;2024-03-07T00:56:38;100622.38;;;6.85;100.00
47524;BME280;33253;42.144;25.884;2024-03-07T00:59:04;100609.94;;;6.92;100.00
47524;BME280;33253;42.144;25.884;2024-03-07T01:01:29;100602.66;;;7.00;100.00
47524;BME280;33253;42.144;25.884;2024-03-07T01:03:56;100597.22;;;7.10;100.00
47524;BME280;33253;42.144;25.884;2024-03-07T01:06:22;100599.53;;;7.22;100.00
47524;BME280;33253;42.144;25.884;2024-03-07T01:09:07;100598.03;;;7.09;100.00
47524;BME280;33253;42.144;25.884;2024-03-07T01:11:39;100600.53;;;7.08;100.00
47524;BME280;33253;42.144;25.884;2024-03-07T01:14:04;100600.53;;;7.08;100.00
47524;BME280;33253;42.144;25.884;2024-03-07T01:16:30;100597.44;;;6.82;100.00
47524;BME280;33253;42.144;25.884;2024-03-07T01:18:55;100605.47;;;6.88;100.00
47524;BME280;33253;42.144;25.884;2024-03-07T01:21:20;100600.59;;;6.93;100.00
47524;BME280;33253;42.144;25.884;2024-03-07T01:23:46;100593.91;;;6.96;100.00
47524;BME280;33253;42.144;25.884;2024-03-07T01:26:11;100601.47;;;6.93;100.00
47524;BME280;33253;42.144;25.884;2024-03-07T01:28:37;100599.94;;;6.97;100.00
47524;BME280;33253;42.144;25.884;2024-03-07T01:31:02;100610.28;;;6.99;100.00
47524;BME280;33253;42.144;25.884;2024-03-07T01:33:28;100608.19;;;6.91;100.00
47524;BME280;33253;42.144;25.884;2024-03-07T01:35:53;100610.22;;;6.66;100.00
47524;BME280;33253;42.144;25.884;2024-03-07T01:38:19;100611.47;;;6.57;100.00
47524;BME280;33253;42.144;25.884;2024-03-07T01:40:44;100613.00;;;6.54;100.00
47524;BME280;33253;42.144;25.884;2024-03-07T01:43:09;100608.75;;;6.54;100.00
47524;BME280;33253;42.144;25.884;2024-03-07T01:45:35;100606.19;;;6.54;100.00
47524;BME280;33253;42.144;25.884;2024-03-07T01:48:02;100607.22;;;6.58;100.00
47524;BME280;33253;42.144;25.884;2024-03-07T01:50:29;100593.44;;;6.56;100.00
47524;BME280;33253;42.144;25.884;2024-03-07T01:52:54;100603.06;;;6.60;100.00
47524;BME280;33253;42.144;25.884;2024-03-07T01:55:21;100599.53;;;6.58;100.00
47524;BME280;33253;42.144;25.884;2024-03-07T01:57:46;100593.72;;;6.60;100.00
47524;BME280;33253;42.144;25.884;2024-03-07T02:00:12;100587.16;;;6.66;100.00
47524;BME280;33253;42.144;25.884;2024-03-07T02:02:38;100577.38;;;6.75;100.00
47524;BME280;33253;42.144;25.884;2024-03-07T02:05:03;100574.06;;;6.77;100.00
47524;BME280;33253;42.144;25.884;2024-03-07T02:07:29;100570.25;;;6.86;100.00
47524;BME280;33253;42.144;25.884;2024-03-07T02:10:02;100571.31;;;6.89;100.00
47524;BME280;33253;42.144;25.884;2024-03-07T02:12:28;100576.31;;;6.88;100.00
47524;BME280;33253;42.144;25.884;2024-03-07T02:14:54;100579.47;;;6.82;100.00
47524;BME280;33253;42.144;25.884;2024-03-07T02:17:20;100576.00;;;6.82;100.00
47524;BME280;33253;42.144;25.884;2024-03-07T02:19:45;100576.09;;;6.83;100.00
47524;BME280;33253;42.144;25.884;2024-03-07T02:22:11;100582.91;;;6.83;100.00
47524;BME280;33253;42.144;25.884;2024-03-07T02:24:37;100579.94;;;6.75;100.00
47524;BME280;33253;42.144;25.884;2024-03-07T02:27:02;100586.84;;;6.76;100.00
47524;BME280;33253;42.144;25.884;2024-03-07T02:29:29;100583.84;;;6.68;100.00
47524;BME280;33253;42.144;25.884;2024-03-07T02:31:55;100587.53;;;6.57;100.00
47524;BME280;33253;42.144;25.884;2024-03-07T02:34:21;100592.78;;;6.43;100.00
47524;BME280;33253;42.144;25.884;2024-03-07T02:36:47;100590.50;;;6.33;100.00
47524;BME280;33253;42.144;25.884;2024-03-07T02:39:12;100588.97;;;6.37;100.00
47524;BME280;33253;42.144;25.884;2024-03-07T02:41:38;100590.00;;;6.40;100.00
47524;BME280;33253;42.144;25.884;2024-03-07T02:44:03;100582.59;;;6.45;100.00
47524;BME280;33253;42.144;25.884;2024-03-07T02:46:29;100583.78;;;6.52;100.00
47524;BME280;33253;42.144;25.884;2024-03-07T02:48:54;100580.34;;;6.51;100.00
47524;BME280;33253;42.144;25.884;2024-03-07T02:51:19;100584.97;;;6.57;100.00
47524;BME280;33253;42.144;25.884;2024-03-07T02:53:45;100586.81;;;6.59;100.00
47524;BME280;33253;42.144;25.884;2024-03-07T02:56:10;100593.06;;;6.64;100.00
47524;BME280;33253;42.144;25.884;2024-03-07T02:58:36;100597.63;;;6.70;100.00
47524;BME280;33253;42.144;25.884;2024-03-07T03:01:02;100595.66;;;6.81;100.00
47524;BME280;33253;42.144;25.884;2024-03-07T03:03:30;100589.88;;;6.85;100.00
47524;BME280;33253;42.144;25.884;2024-03-07T03:05:58;100590.13;;;6.90;100.00
47524;BME280;33253;42.144;25.884;2024-03-07T03:08:24;100586.69;;;6.89;100.00
47524;BME280;33253;42.144;25.884;2024-03-07T03:10:50;100586.78;;;6.91;100.00
47524;BME280;33253;42.144;25.884;2024-03-07T03:13:18;100582.84;;;6.81;100.00
47524;BME280;33253;42.144;25.884;2024-03-07T03:15:43;100586.25;;;6.65;100.00
47524;BME280;33253;42.144;25.884;2024-03-07T03:18:09;100589.81;;;6.52;100.00
47524;BME280;33253;42.144;25.884;2024-03-07T03:20:35;100587.00;;;6.47;100.00
47524;BME280;33253;42.144;25.884;2024-03-07T03:23:03;100596.00;;;6.56;100.00
47524;BME280;33253;42.144;25.884;2024-03-07T03:25:29;100594.31;;;6.56;100.00
47524;BME280;33253;42.144;25.884;2024-03-07T03:27:55;100595.63;;;6.64;100.00
47524;BME280;33253;42.144;25.884;2024-03-07T03:30:20;100591.03;;;6.59;100.00
47524;BME280;33253;42.144;25.884;2024-03-07T03:32:49;100596.81;;;6.55;100.00
47524;BME280;33253;42.144;25.884;2024-03-07T03:35:14;100596.28;;;6.45;100.00
47524;BME280;33253;42.144;25.884;2024-03-07T03:37:41;100594.19;;;6.38;100.00
47524;BME280;33253;42.144;25.884;2024-03-07T03:40:07;100590.84;;;6.39;100.00
47524;BME280;33253;42.144;25.884;2024-03-07T03:42:34;100591.44;;;6.35;100.00
47524;BME280;33253;42.144;25.884;2024-03-07T03:45:01;100594.66;;;6.31;100.00
47524;BME280;33253;42.144;25.884;2024-03-07T03:47:26;100596.06;;;6.26;100.00
47524;BME280;33253;42.144;25.884;2024-03-07T03:49:53;100592.38;;;6.21;100.00
47524;BME280;33253;42.144;25.884;2024-03-07T03:52:18;100596.31;;;6.15;100.00
47524;BME280;33253;42.144;25.884;2024-03-07T03:54:43;100598.66;;;6.11;100.00
47524;BME280;33253;42.144;25.884;2024-03-07T03:57:09;100591.91;;;6.13;100.00
47524;BME280;33253;42.144;25.884;2024-03-07T03:59:34;100593.59;;;6.12;100.00
47524;BME280;33253;42.144;25.884;2024-03-07T04:01:59;100595.53;;;6.17;100.00
47524;BME280;33253;42.144;25.884;2024-03-07T04:04:25;100596.94;;;6.26;100.00
47524;BME280;33253;42.144;25.884;2024-03-07T04:06:51;100592.00;;;6.29;100.00
47524;BME280;33253;42.144;25.884;2024-03-07T04:09:16;100595.50;;;6.31;100.00
47524;BME280;33253;42.144;25.884;2024-03-07T04:11:44;100592.25;;;6.34;100.00
47524;BME280;33253;42.144;25.884;2024-03-07T04:14:09;100592.69;;;6.42;100.00
47524;BME280;33253;42.144;25.884;2024-03-07T04:16:35;100592.56;;;6.40;100.00
47524;BME280;33253;42.144;25.884;2024-03-07T04:19:00;100589.94;;;6.39;100.00
47524;BME280;33253;42.144;25.884;2024-03-07T04:21:25;100588.75;;;6.17;100.00
47524;BME280;33253;42.144;25.884;2024-03-07T04:23:51;100593.44;;;6.09;100.00
47524;BME280;33253;42.144;25.884;2024-03-07T04:26:16;100589.56;;;6.01;100.00
47524;BME280;33253;42.144;25.884;2024-03-07T04:28:42;100585.81;;;5.96;100.00
47524;BME280;33253;42.144;25.884;2024-03-07T04:31:07;100588.38;;;5.96;100.00
47524;BME280;33253;42.144;25.884;2024-03-07T04:33:33;100582.19;;;5.92;100.00
47524;BME280;33253;42.144;25.884;2024-03-07T04:35:58;100585.88;;;5.97;100.00
47524;BME280;33253;42.144;25.884;2024-03-07T04:38:26;100585.81;;;5.96;100.00
47524;BME280;33253;42.144;25.884;2024-03-07T04:40:53;100585.53;;;5.91;100.00
47524;BME280;33253;42.144;25.884;2024-03-07T04:43:19;100594.00;;;5.90;100.00
47524;BME280;33253;42.144;25.884;2024-03-07T04:45:44;100591.53;;;5.92;100.00
47524;BME280;33253;42.144;25.884;2024-03-07T04:48:10;100591.00;;;5.97;100.00
47524;BME280;33253;42.144;25.884;2024-03-07T04:50:37;100585.88;;;5.97;100.00
47524;BME280;33253;42.144;25.884;2024-03-07T04:53:03;100591.88;;;5.98;100.00
47524;BME280;33253;42.144;25.884;2024-03-07T04:55:28;100588.66;;;6.01;100.00
47524;BME280;33253;42.144;25.884;2024-03-07T04:57:53;100591.81;;;5.96;100.00
47524;BME280;33253;42.144;25.884;2024-03-07T05:00:19;100591.22;;;6.01;100.00
47524;BME280;33253;42.144;25.884;2024-03-07T05:02:45;100593.88;;;6.02;100.00
47524;BME280;33253;42.144;25.884;2024-03-07T05:05:10;100592.28;;;6.04;100.00
47524;BME280;33253;42.144;25.884;2024-03-07T05:07:36;100590.25;;;5.98;100.00
47524;BME280;33253;42.144;25.884;2024-03-07T05:10:02;100594.75;;;6.03;100.00
47524;BME280;33253;42.144;25.884;2024-03-07T05:12:29;100596.69;;;6.07;100.00
47524;BME280;33253;42.144;25.884;2024-03-07T05:14:54;100598.47;;;6.08;100.00
47524;BME280;33253;42.144;25.884;2024-03-07T05:17:20;100602.09;;;6.11;100.00
47524;BME280;33253;42.144;25.884;2024-03-07T05:19:47;100593.69;;;6.14;100.00
47524;BME280;33253;42.144;25.884;2024-03-07T05:22:14;100595.66;;;6.18;100.00
47524;BME280;33253;42.144;25.884;2024-03-07T05:24:41;100590.31;;;6.30;100.00
47524;BME280;33253;42.144;25.884;2024-03-07T05:27:07;100590.31;;;6.30;100.00
47524;BME280;33253;42.144;25.884;2024-03-07T05:29:33;100592.59;;;6.25;100.00
47524;BME280;33253;42.144;25.884;2024-03-07T05:32:18;100595.25;;;6.42;100.00
47524;BME280;33253;42.144;25.884;2024-03-07T05:34:46;100592.84;;;6.45;100.00
47524;BME280;33253;42.144;25.884;2024-03-07T05:37:11;100595.28;;;6.58;100.00
47524;BME280;33253;42.144;25.884;2024-03-07T05:39:36;100585.44;;;6.66;100.00
47524;BME280;33253;42.144;25.884;2024-03-07T05:42:02;100578.94;;;6.73;100.00
47524;BME280;33253;42.144;25.884;2024-03-07T05:44:28;100577.22;;;6.72;100.00
47524;BME280;33253;42.144;25.884;2024-03-07T05:46:53;100568.16;;;6.78;100.00
47524;BME280;33253;42.144;25.884;2024-03-07T05:49:20;100569.22;;;6.82;100.00
47524;BME280;33253;42.144;25.884;2024-03-07T05:51:46;100573.63;;;6.85;100.00
47524;BME280;33253;42.144;25.884;2024-03-07T05:54:12;100581.00;;;6.95;100.00
47524;BME280;33253;42.144;25.884;2024-03-07T05:56:38;100587.09;;;6.97;100.00
47524;BME280;33253;42.144;25.884;2024-03-07T05:59:03;100585.00;;;7.06;100.00
47524;BME280;33253;42.144;25.884;2024-03-07T06:01:37;100591.13;;;7.08;100.00
47524;BME280;33253;42.144;25.884;2024-03-07T06:04:02;100595.72;;;7.14;100.00
47524;BME280;33253;42.144;25.884;2024-03-07T06:06:30;100593.94;;;7.13;100.00
47524;BME280;33253;42.144;25.884;2024-03-07T06:08:57;100605.59;;;7.23;100.00
47524;BME280;33253;42.144;25.884;2024-03-07T06:11:23;100598.94;;;7.26;100.00
47524;BME280;33253;42.144;25.884;2024-03-07T06:13:48;100603.06;;;7.41;100.00
47524;BME280;33253;42.144;25.884;2024-03-07T06:16:13;100604.13;;;7.44;100.00
47524;BME280;33253;42.144;25.884;2024-03-07T06:18:40;100603.72;;;7.37;100.00
47524;BME280;33253;42.144;25.884;2024-03-07T06:21:05;100603.09;;;7.24;100.00
47524;BME280;33253;42.144;25.884;2024-03-07T06:23:31;100615.75;;;7.21;100.00
47524;BME280;33253;42.144;25.884;2024-03-07T06:25:57;100613.75;;;7.16;100.00
47524;BME280;33253;42.144;25.884;2024-03-07T06:28:24;100609.34;;;7.13;100.00
47524;BME280;33253;42.144;25.884;2024-03-07T06:30:50;100601.47;;;7.10;100.00
47524;BME280;33253;42.144;25.884;2024-03-07T06:33:15;100612.84;;;7.15;100.00
47524;BME280;33253;42.144;25.884;2024-03-07T06:35:45;100610.53;;;7.20;100.00
47524;BME280;33253;42.144;25.884;2024-03-07T06:38:10;100606.69;;;7.28;100.00
47524;BME280;33253;42.144;25.884;2024-03-07T06:40:39;100610.31;;;7.32;100.00
47524;BME280;33253;42.144;25.884;2024-03-07T06:43:05;100613.81;;;7.34;100.00
47524;BME280;33253;42.144;25.884;2024-03-07T06:45:37;100604.66;;;7.39;100.00
47524;BME280;33253;42.144;25.884;2024-03-07T06:48:03;100613.09;;;7.36;100.00
47524;BME280;33253;42.144;25.884;2024-03-07T06:50:29;100610.72;;;7.39;100.00
47524;BME280;33253;42.144;25.884;2024-03-07T06:52:54;100607.41;;;7.42;100.00
47524;BME280;33253;42.144;25.884;2024-03-07T06:55:19;100613.81;;;7.34;100.00
47524;BME280;33253;42.144;25.884;2024-03-07T06:57:45;100607.91;;;7.18;100.00
47524;BME280;33253;42.144;25.884;2024-03-07T07:00:14;100615.34;;;7.13;100.00
47524;BME280;33253;42.144;25.884;2024-03-07T07:02:45;100617.03;;;7.13;100.00
47524;BME280;33253;42.144;25.884;2024-03-07T07:05:10;100617.84;;;7.12;100.00
47524;BME280;33253;42.144;25.884;2024-03-07T07:07:36;100624.56;;;7.10;100.00
47524;BME280;33253;42.144;25.884;2024-03-07T07:10:02;100619.38;;;7.08;100.00
47524;BME280;33253;42.144;25.884;2024-03-07T07:12:27;100620.16;;;7.07;100.00
47524;BME280;33253;42.144;25.884;2024-03-07T07:14:54;100625.69;;;7.15;100.00
47524;BME280;33253;42.144;25.884;2024-03-07T07:17:20;100627.53;;;7.18;100.00
47524;BME280;33253;42.144;25.884;2024-03-07T07:19:45;100626.91;;;7.22;100.00
47524;BME280;33253;42.144;25.884;2024-03-07T07:22:10;100625.22;;;7.22;100.00
47524;BME280;33253;42.144;25.884;2024-03-07T07:24:37;100620.16;;;7.24;100.00
47524;BME280;33253;42.144;25.884;2024-03-07T07:27:02;100623.69;;;7.26;100.00
47524;BME280;33253;42.144;25.884;2024-03-07T07:29:28;100621.38;;;7.31;100.00
47524;BME280;33253;42.144;25.884;2024-03-07T07:31:54;100618.25;;;7.36;100.00
47524;BME280;33253;42.144;25.884;2024-03-07T07:34:19;100625.88;;;7.35;100.00
47524;BME280;33253;42.144;25.884;2024-03-07T07:36:45;100621.72;;;7.37;100.00
47524;BME280;33253;42.144;25.884;2024-03-07T07:39:10;100618.50;;;7.41;100.00
47524;BME280;33253;42.144;25.884;2024-03-07T07:41:42;100616.81;;;7.41;100.00
47524;BME280;33253;42.144;25.884;2024-03-07T07:44:07;100621.97;;;7.41;100.00
47524;BME280;33253;42.144;25.884;2024-03-07T07:46:33;100624.53;;;7.41;100.00
47524;BME280;33253;42.144;25.884;2024-03-07T07:48:59;100624.59;;;7.43;100.00
47524;BME280;33253;42.144;25.884;2024-03-07T07:51:24;100625.84;;;7.51;100.00
47524;BME280;33253;42.144;25.884;2024-03-07T07:53:50;100622.09;;;7.61;100.00
47524;BME280;33253;42.144;25.884;2024-03-07T07:56:15;100625.88;;;7.68;100.00
47524;BME280;33253;42.144;25.884;2024-03-07T07:58:41;100631.47;;;7.77;100.00
47524;BME280;33253;42.144;25.884;2024-03-07T08:01:06;100629.75;;;7.77;100.00
47524;BME280;33253;42.144;25.884;2024-03-07T08:03:34;100629.06;;;7.64;100.00
47524;BME280;33253;42.144;25.884;2024-03-07T08:06:00;100633.25;;;7.61;100.00
47524;BME280;33253;42.144;25.884;2024-03-07T08:08:26;100632.06;;;7.71;100.00
47524;BME280;33253;42.144;25.884;2024-03-07T08:10:51;100634.84;;;7.76;100.00
47524;BME280;33253;42.144;25.884;2024-03-07T08:13:16;100636.19;;;7.86;100.00
47524;BME280;33253;42.144;25.884;2024-03-07T08:15:42;100642.44;;;7.91;100.00
47524;BME280;33253;42.144;25.884;2024-03-07T08:18:07;100640.03;;;7.94;100.00
47524;BME280;33253;42.144;25.884;2024-03-07T08:20:35;100636.50;;;7.92;100.00
47524;BME280;33253;42.144;25.884;2024-03-07T08:23:01;100640.75;;;7.91;100.00
47524;BME280;33253;42.144;25.884;2024-03-07T08:25:27;100633.19;;;7.94;100.00
47524;BME280;33253;42.144;25.884;2024-03-07T08:27:54;100639.38;;;7.98;100.00
47524;BME280;33253;42.144;25.884;2024-03-07T08:30:21;100642.13;;;8.01;100.00
47524;BME280;33253;42.144;25.884;2024-03-07T08:32:54;100642.41;;;8.07;100.00
47524;BME280;33253;42.144;25.884;2024-03-07T08:35:20;100643.28;;;8.08;100.00
47524;BME280;33253;42.144;25.884;2024-03-07T08:37:46;100650.22;;;8.09;100.00
47524;BME280;33253;42.144;25.884;2024-03-07T08:40:18;100653.22;;;8.18;100.00
47524;BME280;33253;42.144;25.884;2024-03-07T08:42:49;100659.34;;;8.20;100.00
47524;BME280;33253;42.144;25.884;2024-03-07T08:45:18;100672.84;;;8.16;100.00
47524;BME280;33253;42.144;25.884;2024-03-07T08:47:47;100675.38;;;7.98;100.00
47524;BME280;33253;42.144;25.884;2024-03-07T08:50:13;100678.91;;;7.84;100.00
47524;BME280;33253;42.144;25.884;2024-03-07T08:52:39;100686.41;;;7.79;100.00
47524;BME280;33253;42.144;25.884;2024-03-07T08:55:05;100683.94;;;7.64;100.00
47524;BME280;33253;42.144;25.884;2024-03-07T08:57:31;100692.97;;;7.57;100.00
47524;BME280;33253;42.144;25.884;2024-03-07T08:59:56;100686.00;;;7.55;100.00
47524;BME280;33253;42.144;25.884;2024-03-07T09:02:21;100689.16;;;7.49;100.00
47524;BME280;33253;42.144;25.884;2024-03-07T09:04:47;100691.06;;;7.53;100.00
47524;BME280;33253;42.144;25.884;2024-03-07T09:07:12;100689.47;;;7.55;100.00
47524;BME280;33253;42.144;25.884;2024-03-07T09:09:41;100691.72;;;7.49;100.00
47524;BME280;33253;42.144;25.884;2024-03-07T09:12:10;100696.53;;;7.43;100.00
47524;BME280;33253;42.144;25.884;2024-03-07T09:14:36;100694.81;;;7.43;100.00
47524;BME280;33253;42.144;25.884;2024-03-07T09:17:02;100702.50;;;7.27;100.00
47524;BME280;33253;42.144;25.884;2024-03-07T09:19:29;100698.81;;;7.22;100.00
47524;BME280;33253;42.144;25.884;2024-03-07T09:21:55;100692.94;;;7.08;100.00
47524;BME280;33253;42.144;25.884;2024-03-07T09:24:20;100700.19;;;7.00;100.00
47524;BME280;33253;42.144;25.884;2024-03-07T09:26:49;100694.34;;;7.03;100.00
47524;BME280;33253;42.144;25.884;2024-03-07T09:29:15;100694.28;;;7.01;100.00
47524;BME280;33253;42.144;25.884;2024-03-07T09:31:40;100691.22;;;6.92;100.00
47524;BME280;33253;42.144;25.884;2024-03-07T09:34:06;100689.69;;;6.95;100.00
47524;BME280;33253;42.144;25.884;2024-03-07T09:36:33;100689.94;;;7.00;100.00
47524;BME280;33253;42.144;25.884;2024-03-07T09:38:58;100687.03;;;6.94;100.00
47524;BME280;33253;42.144;25.884;2024-03-07T09:41:24;100691.69;;;7.01;100.00
47524;BME280;33253;42.144;25.884;2024-03-07T09:43:53;100697.88;;;7.05;100.00
47524;BME280;33253;42.144;25.884;2024-03-07T09:46:22;100693.44;;;7.17;100.00
47524;BME280;33253;42.144;25.884;2024-03-07T09:48:49;100700.97;;;7.14;100.00
47524;BME280;33253;42.144;25.884;2024-03-07T09:51:18;100700.00;;;7.12;100.00
47524;BME280;33253;42.144;25.884;2024-03-07T09:53:44;100684.06;;;7.03;100.00
47524;BME280;33253;42.144;25.884;2024-03-07T09:56:10;100694.28;;;7.01;100.00
47524;BME280;33253;42.144;25.884;2024-03-07T09:58:38;100693.09;;;7.11;100.00
47524;BME280;33253;42.144;25.884;2024-03-07T10:01:04;100682.34;;;7.02;100.00
47524;BME280;33253;42.144;25.884;2024-03-07T10:03:35;100679.91;;;7.05;100.00
47524;BME280;33253;42.144;25.884;2024-03-07T10:06:01;100680.56;;;7.01;100.00
47524;BME280;33253;42.144;25.884;2024-03-07T10:08:26;100690.66;;;6.97;100.00
47524;BME280;33253;42.144;25.884;2024-03-07T10:10:53;100678.47;;;6.93;100.00
47524;BME280;33253;42.144;25.884;2024-03-07T10:13:19;100621.81;;;6.59;100.00
47524;BME280;33253;42.144;25.884;2024-03-07T10:15:47;100678.38;;;6.92;100.00
47524;BME280;33253;42.144;25.884;2024-03-07T10:18:13;100681.66;;;6.89;100.00
47524;BME280;33253;42.144;25.884;2024-03-07T10:20:39;100686.94;;;6.92;100.00
47524;BME280;33253;42.144;25.884;2024-03-07T10:23:04;100674.53;;;7.00;100.00
47524;BME280;33253;42.144;25.884;2024-03-07T10:25:33;100674.72;;;7.03;100.00
47524;BME280;33253;42.144;25.884;2024-03-07T10:27:58;100675.69;;;7.05;100.00
47524;BME280;33253;42.144;25.884;2024-03-07T10:30:25;100674.97;;;7.08;100.00
47524;BME280;33253;42.144;25.884;2024-03-07T10:32:57;100679.66;;;7.00;100.00
47524;BME280;33253;42.144;25.884;2024-03-07T10:35:23;100682.34;;;7.02;100.00
47524;BME280;33253;42.144;25.884;2024-03-07T10:37:55;100683.22;;;7.02;100.00
47524;BME280;33253;42.144;25.884;2024-03-07T10:40:39;100684.97;;;7.03;100.00
47524;BME280;33253;42.144;25.884;2024-03-07T10:43:10;100687.31;;;7.15;100.00
47524;BME280;33253;42.144;25.884;2024-03-07T10:45:46;100682.44;;;7.20;100.00
47524;BME280;33253;42.144;25.884;2024-03-07T10:48:17;100688.28;;;7.17;100.00
47524;BME280;33253;42.144;25.884;2024-03-07T10:53:29;100686.69;;;7.19;100.00
47524;BME280;33253;42.144;25.884;2024-03-07T10:58:47;100679.91;;;7.05;100.00
47524;BME280;33253;42.144;25.884;2024-03-07T11:01:18;100680.00;;;7.06;100.00
47524;BME280;33253;42.144;25.884;2024-03-07T11:03:45;100685.06;;;7.05;100.00
47524;BME280;33253;42.144;25.884;2024-03-07T11:06:11;100681.50;;;7.03;100.00
47524;BME280;33253;42.144;25.884;2024-03-07T11:08:37;100678.00;;;7.01;100.00
47524;BME280;33253;42.144;25.884;2024-03-07T11:11:03;100683.75;;;6.96;100.00
47524;BME280;33253;42.144;25.884;2024-03-07T11:13:29;100684.91;;;7.02;100.00
47524;BME280;33253;42.144;25.884;2024-03-07T11:15:55;100680.59;;;7.17;100.00
47524;BME280;33253;42.144;25.884;2024-03-07T11:18:23;100666.00;;;7.33;100.00
47524;BME280;33253;42.144;25.884;2024-03-07T11:20:49;100668.72;;;7.36;100.00
47524;BME280;33253;42.144;25.884;2024-03-07T11:26:02;100670.72;;;7.25;100.00
47524;BME280;33253;42.144;25.884;2024-03-07T11:28:30;100676.44;;;7.19;100.00
47524;BME280;33253;42.144;25.884;2024-03-07T11:31:06;100677.22;;;7.18;100.00
47524;BME280;33253;42.144;25.884;2024-03-07T11:33:32;100668.88;;;7.22;100.00
47524;BME280;33253;42.144;25.884;2024-03-07T11:35:59;100663.66;;;7.21;100.00
47524;BME280;33253;42.144;25.884;2024-03-07T11:38:31;100676.66;;;7.24;100.00
47524;BME280;33253;42.144;25.884;2024-03-07T11:40:59;100670.00;;;7.27;100.00
47524;BME280;33253;42.144;25.884;2024-03-07T11:43:26;100673.56;;;7.46;100.00
47524;BME280;33253;42.144;25.884;2024-03-07T11:45:55;100666.41;;;7.57;100.00
47524;BME280;33253;42.144;25.884;2024-03-07T11:48:22;100656.38;;;7.61;100.00
47524;BME280;33253;42.144;25.884;2024-03-07T11:50:48;100667.38;;;7.59;100.00
47524;BME280;33253;42.144;25.884;2024-03-07T11:53:14;100662.47;;;7.64;100.00
47524;BME280;33253;42.144;25.884;2024-03-07T11:55:40;100662.72;;;7.68;100.00
47524;BME280;33253;42.144;25.884;2024-03-07T11:58:14;100668.97;;;7.57;100.00
47524;BME280;33253;42.144;25.884;2024-03-07T12:00:44;100668.28;;;7.43;100.00
47524;BME280;33253;42.144;25.884;2024-03-07T12:03:13;100672.34;;;7.39;100.00
47524;BME280;33253;42.144;25.884;2024-03-07T12:05:43;100671.56;;;7.40;100.00
47524;BME280;33253;42.144;25.884;2024-03-07T12:08:09;100670.97;;;7.63;100.00
47524;BME280;33253;42.144;25.884;2024-03-07T12:10:35;100670.19;;;7.64;100.00
47524;BME280;33253;42.144;25.884;2024-03-07T12:13:01;100665.22;;;7.67;100.00
47524;BME280;33253;42.144;25.884;2024-03-07T12:15:26;100671.81;;;7.61;100.00
47524;BME280;33253;42.144;25.884;2024-03-07T12:17:52;100662.06;;;7.56;100.00
47524;BME280;33253;42.144;25.884;2024-03-07T12:20:19;100661.41;;;7.60;100.00
47524;BME280;33253;42.144;25.884;2024-03-07T12:22:54;100660.63;;;7.61;100.00
47524;BME280;33253;42.144;25.884;2024-03-07T12:25:21;100666.16;;;7.52;100.00
47524;BME280;33253;42.144;25.884;2024-03-07T12:30:51;100662.31;;;7.60;100.00
47524;BME280;33253;42.144;25.884;2024-03-07T12:33:18;100672.34;;;7.56;100.00
47524;BME280;33253;42.144;25.884;2024-03-07T12:35:43;100673.88;;;7.52;100.00
47524;BME280;33253;42.144;25.884;2024-03-07T12:38:09;100671.56;;;7.57;100.00
47524;BME280;33253;42.144;25.884;2024-03-07T12:40:40;100678.94;;;7.51;100.00
47524;BME280;33253;42.144;25.884;2024-03-07T12:43:23;100680.63;;;7.50;100.00
47524;BME280;33253;42.144;25.884;2024-03-07T12:46:12;100679.00;;;7.52;100.00
47524;BME280;33253;42.144;25.884;2024-03-07T12:48:38;100673.41;;;7.59;100.00